Friday, May 27, 2016
16:12 UTC
  |  Log In   |  Register Free
Airport Search:

Chanute Martin Johnson Airport
(KCNU)

Chanute Martin Johnson Airport Diagram
No Airport Diagram Available

FAA data valid effective Mar 31 2016 - May 26 2016 (unless otherwise noted).

 
 
 
 
 
 
 
 
 
 
 
 
 
 
Current Aviation Weather for KCNU

Weather Summary


The most recent METAR observation for CNU was updated at: 12:52 UTC
METAR for KCNU is not available. Closest METAR is for KPPF
KCNU  (most recent observation was updatred at 27:15 UTC)
271552Z AUTO 13009KT 10SM CLR 21/17 A2972

KPPF  (20.3 nm NE)   (most recent observation was updated at 27:15 UTC)
271552Z AUTO CLR 21/18 A2971 RMK AO2 SLP054 T02110178 PWINO PNO $

KIDP  (33.7 nm NE)   (most recent observation was updated at 27:15 UTC)
271555Z AUTO 14007G14KT 10SM SCT017 22/18 A2970 RMK AO2

TAF for KCNU is not available.
KCNU
271131Z 2712/2812 13009KT P6SM SCT020 BKN100 TEMPO 2712/2715 BKN020 FM271500 16013KT P6SM BKN025 FM271800 17015G22KT P6SM VCTS BKN030CB

GlobalAir.com is loading additional information.
 Current Weather at CNU
66.0 F° (18.9 C°)

Southeast winds at 8.1 mph
Pressure:
29.75 in
Humidity:
81%
Wind:
Southeast at 8.1 mph
Dew Point:
60.1 F° (15.6 C°)
Visibility:
10.00 mi
CNU NOAA Radar




Find All Airport Services Find A Hotel Find A Rental Car Find A Golf Course Find A Restaurant $100 Hamburger



Airport Weather Forecast for KCNU

Translated METAR for KCNU (1552 UTC)
METAR:
KCNU 271552Z AUTO 13009KT 10SM CLR 21/17 A2972
Conditions at:
KCNU (Chanute Martin Johnson, KS) observed 1552 UTC 27 May 2016
Temperature:
21°C (69.8°F)
Dewpoint:
17°C (62.6°F) [RH = 77.9]
Pressure:
29.72 inches Hg (1006.4 mb)
Winds:
from the SE (130 degrees) at 10.4 mph (9 knots: 4.6 m/s)
Visibility:
10 mile(s)
Ceiling:
at least 12,000 feet AGL
Clouds:
Clear below 12,000 feet AGL
Remarks:
site is un-manned

Translated TAF for KCNU (Chanute Martin Johnson, KS) (1131 UTC)
TAF text:
KCNU 271131Z 2712/2812 13009KT P6SM SCT020 BKN100
Forecast period:
Friday May 27 2016 12:00 UTC - Saturday May 28 2016 12:00 UTC
Forecast type:
FROM: standard forecast or significant change
Winds:
from the SE (130 degrees) at 10.4 mph (9 knots: 4.6 m/s)
Visibility:
6 or more mile(s) (9.7+ km)
Ceiling:
10,000 feet AGL
Clouds:
Scattered Clouds at 2,000 feet AGL
Broken Cloud Cover at 10,000 feet AGL
Weather:
no significant weather observed at this time
TAF text:
2712/2715 BKN020
Forecast period:
Saturday May 28 2016 12:00 UTC - Saturday May 28 2016 15:00 UTC
Forecast type:
FROM: standard forecast or significant change
Winds:
Visibility:
Ceiling:
2,000 feet AGL
Clouds:
Broken Cloud Cover at 2,000 feet AGL
Weather:
no significant weather observed at this time
TAF text:
FM271500 16013KT P6SM BKN025
Forecast period:
Friday May 27 2016 15:00 UTC - Friday May 27 2016 18:00 UTC
Forecast type:
FROM: standard forecast or significant change
Winds:
from the SSE (160 degrees) at 15 mph (13 knots: 6.7 m/s)
Visibility:
6 or more mile(s) (9.7+ km)
Ceiling:
2,500 feet AGL
Clouds:
Broken Cloud Cover at 2,500 feet AGL
Weather:
no significant weather observed at this time
TAF text:
FM271800 17015G22KT P6SM VCTS BKN030CB
Forecast period:
Friday May 27 2016 18:00 UTC - Saturday May 28 2016 12:00 UTC
Forecast type:
FROM: standard forecast or significant change
Winds:
from the S (170 degrees) at 17.3 mph (15 knots: 7.7 m/s)
gusting to 25.3 mph (22 knots: 11.3 m/s)
Visibility:
6 or more mile(s) (9.7+ km)
Ceiling:
Clouds:
Weather:
Moderate In Vicinity Thunderstorm
FBO's on the Field
FBO Company Facility Photos Services Transportation Aviation Fuel Prices: Prices include tax
Catering Weather Repair Courtesy Rental Type 100LL JetA JetA+ MOGAS 8087
 
City of Chanute

This FBO has not yet been rated
FS:Phillips 66
Last Updated: May-18
Login to update fuel prices
SS:
Contact City of ChanuteMore FBO Information
 
Add another FBO Facility Photos Catering Weather Repair Courtesy Rental Type 100LL JetA JetA+ MOGAS 8087
Services Transportation Aviation Fuel Prices: Prices include tax


model-print
model-print
model-print
model-print